createdAt,value
2022-08-03T00:00:34.619Z,99707.84
2022-08-03T00:02:36.381Z,99713.31
2022-08-03T00:04:38.119Z,99698.03
2022-08-03T00:06:40.499Z,99691.47
2022-08-03T00:08:42.265Z,99701.56
2022-08-03T00:10:44.068Z,99688.75
2022-08-03T00:12:45.802Z,99695.81
2022-08-03T00:14:47.439Z,99690.69
2022-08-03T00:16:49.695Z,99694.47
2022-08-03T00:18:51.647Z,99703.75
2022-08-03T00:20:53.482Z,99695.88
2022-08-03T00:22:55.198Z,99696.09
2022-08-03T00:24:56.828Z,99700.44
2022-08-03T00:26:58.937Z,99681.84
2022-08-03T00:29:00.709Z,99691.09
2022-08-03T00:31:02.390Z,99680.44
2022-08-03T00:33:05.407Z,99668.81
2022-08-03T00:35:14.773Z,99668.75
2022-08-03T00:37:41.430Z,99670.00
2022-08-03T00:39:45.954Z,99664.69
2022-08-03T00:41:47.624Z,99660.56
2022-08-03T00:43:49.285Z,99663.88
2022-08-03T00:45:51.078Z,99684.34
2022-08-03T00:47:52.963Z,99665.47
2022-08-03T00:49:54.744Z,99677.41
2022-08-03T00:51:56.531Z,99655.22
2022-08-03T00:53:58.435Z,99662.13
2022-08-03T00:56:00.146Z,99653.03
2022-08-03T00:58:06.609Z,99667.53
2022-08-03T01:00:10.502Z,99657.88
2022-08-03T01:02:12.189Z,99656.94
2022-08-03T01:04:13.925Z,99656.81
2022-08-03T01:06:18.763Z,99659.31
2022-08-03T01:08:43.498Z,99641.72
2022-08-03T01:11:23.827Z,99643.66
2022-08-03T01:14:01.103Z,99660.06
2022-08-03T01:16:08.626Z,99659.78
2022-08-03T01:18:17.421Z,99655.91
2022-08-03T01:20:22.395Z,99655.91
2022-08-03T01:22:51.567Z,99645.34
2022-08-03T01:25:31.411Z,99641.75
2022-08-03T01:27:54.365Z,99650.25
2022-08-03T01:30:10.247Z,99652.91
2022-08-03T01:33:03.142Z,99649.69
2022-08-03T01:34:53.123Z,99649.81
2022-08-03T01:36:57.644Z,99643.88
2022-08-03T01:39:02.506Z,99635.94
2022-08-03T01:41:18.918Z,99644.59
2022-08-03T01:44:26.702Z,99643.13
2022-08-03T01:45:48.308Z,99646.84
2022-08-03T01:47:50.704Z,99641.78
2022-08-03T01:49:54.495Z,99634.63
2022-08-03T01:52:05.029Z,99628.69
2022-08-03T01:54:10.211Z,99638.75
2022-08-03T01:56:14.120Z,99618.28
2022-08-03T01:58:18.822Z,99622.38
2022-08-03T02:00:20.626Z,99628.41
2022-08-03T02:02:33.870Z,99618.66
2022-08-03T02:04:39.241Z,99625.91
2022-08-03T02:07:01.728Z,99627.25
2022-08-03T02:09:06.666Z,99615.59
2022-08-03T02:11:08.758Z,99628.91
2022-08-03T02:13:11.316Z,99619.59
2022-08-03T02:15:16.093Z,99621.56
2022-08-03T02:17:39.449Z,99627.28
2022-08-03T02:19:43.182Z,99636.59
2022-08-03T02:21:57.250Z,99635.44
2022-08-03T02:24:04.848Z,99632.22
2022-08-03T02:26:12.676Z,99631.19
2022-08-03T02:28:19.684Z,99636.91
2022-08-03T02:30:22.008Z,99641.28
2022-08-03T02:32:34.518Z,99644.50
2022-08-03T02:34:37.321Z,99642.84
2022-08-03T02:36:41.017Z,99645.69
2022-08-03T02:38:44.423Z,99649.97
2022-08-03T02:40:46.502Z,99634.84
2022-08-03T02:42:51.563Z,99630.75
2022-08-03T02:44:55.432Z,99634.47
2022-08-03T02:47:02.348Z,99623.31
2022-08-03T02:49:49.785Z,99617.50
2022-08-03T02:51:30.056Z,99628.88
2022-08-03T02:53:33.259Z,99625.56
2022-08-03T02:55:35.977Z,99617.47
2022-08-03T02:57:46.681Z,99617.06
2022-08-03T02:59:49.646Z,99627.44
2022-08-03T03:01:54.053Z,99624.38
2022-08-03T03:03:57.652Z,99630.38
2022-08-03T03:05:59.948Z,99632.81
2022-08-03T03:08:02.600Z,99634.31
2022-08-03T03:10:05.240Z,99620.41
2022-08-03T03:12:09.978Z,99638.09
2022-08-03T03:14:13.554Z,99634.75
2022-08-03T03:16:16.260Z,99613.41
2022-08-03T03:18:22.255Z,99619.75
2022-08-03T03:20:29.317Z,99608.31
2022-08-03T03:22:34.389Z,99613.25
2022-08-03T03:24:37.663Z,99606.22
2022-08-03T03:26:42.449Z,99617.31
2022-08-03T03:28:44.733Z,99610.63
2022-08-03T03:30:52.679Z,99612.09
2022-08-03T03:32:55.525Z,99613.59
2022-08-03T03:34:59.317Z,99613.16
2022-08-03T03:37:01.678Z,99614.56
2022-08-03T03:39:15.389Z,99615.13
2022-08-03T03:41:18.072Z,99624.63
2022-08-03T03:43:24.261Z,99615.22
2022-08-03T03:45:27.506Z,99622.63
2022-08-03T03:47:32.708Z,99633.47
2022-08-03T03:49:34.971Z,99628.22
2022-08-03T03:51:36.785Z,99636.25
2022-08-03T03:53:38.638Z,99629.69
2022-08-03T03:56:01.643Z,99625.94
2022-08-03T03:58:04.243Z,99633.06
2022-08-03T04:00:07.070Z,99645.06
2022-08-03T04:02:10.571Z,99649.56
2022-08-03T04:04:30.968Z,99651.28
2022-08-03T04:06:51.433Z,99636.16
2022-08-03T04:09:11.664Z,99644.88
2022-08-03T04:11:30.132Z,99651.75
2022-08-03T04:13:37.993Z,99651.59
2022-08-03T04:15:41.493Z,99643.69
2022-08-03T04:17:44.542Z,99651.59
2022-08-03T04:19:51.435Z,99641.69
2022-08-03T04:21:57.301Z,99645.00
2022-08-03T04:24:03.625Z,99640.41
2022-08-03T04:26:09.998Z,99639.22
2022-08-03T04:28:30.343Z,99645.38
2022-08-03T04:30:37.800Z,99641.97
2022-08-03T04:32:45.499Z,99648.53
2022-08-03T04:34:47.779Z,99644.69
2022-08-03T04:36:53.215Z,99648.66
2022-08-03T04:39:10.825Z,99639.91
2022-08-03T04:41:13.555Z,99648.75
2022-08-03T04:43:18.540Z,99642.97
2022-08-03T04:45:21.361Z,99643.16
2022-08-03T04:47:23.239Z,99648.44
2022-08-03T04:49:25.653Z,99649.28
2022-08-03T04:51:27.982Z,99645.13
2022-08-03T04:53:29.777Z,99642.00
2022-08-03T04:55:33.203Z,99651.38
2022-08-03T04:57:34.980Z,99656.69
2022-08-03T04:59:39.084Z,99663.00
2022-08-03T05:01:42.672Z,99668.28
2022-08-03T05:03:44.393Z,99663.81
2022-08-03T05:05:50.006Z,99672.84
2022-08-03T05:07:53.093Z,99668.75
2022-08-03T05:10:01.651Z,99664.16
2022-08-03T05:12:06.453Z,99673.66
2022-08-03T05:14:08.136Z,99668.03
2022-08-03T05:16:09.904Z,99677.94
2022-08-03T05:18:14.194Z,99668.84
2022-08-03T05:20:18.114Z,99673.41
2022-08-03T05:22:21.506Z,99674.84
2022-08-03T05:24:23.397Z,99688.06
2022-08-03T05:26:25.285Z,99685.38
2022-08-03T05:28:28.452Z,99686.31
2022-08-03T05:30:33.422Z,99687.34
2022-08-03T05:32:35.962Z,99689.59
2022-08-03T05:34:37.769Z,99693.13
2022-08-03T05:36:39.739Z,99690.16
2022-08-03T05:38:41.445Z,99688.00
2022-08-03T05:40:56.840Z,99697.03
2022-08-03T05:42:59.925Z,99693.03
2022-08-03T05:45:13.297Z,99686.25
2022-08-03T05:47:15.079Z,99700.19
2022-08-03T05:49:16.831Z,99693.41
2022-08-03T05:51:18.612Z,99698.81
2022-08-03T05:53:20.288Z,99699.53
2022-08-03T05:55:21.912Z,99688.75
2022-08-03T05:57:23.665Z,99684.06
2022-08-03T05:59:38.121Z,99687.19
2022-08-03T06:01:40.367Z,99680.91
2022-08-03T06:03:42.347Z,99690.72
2022-08-03T06:05:55.565Z,99683.06
2022-08-03T06:08:03.616Z,99684.63
2022-08-03T06:10:36.814Z,99683.63
2022-08-03T06:12:28.042Z,99690.41
2022-08-03T06:14:29.749Z,99684.88
2022-08-03T06:16:31.617Z,99675.97
2022-08-03T06:18:33.381Z,99679.59
2022-08-03T06:20:35.085Z,99676.28
2022-08-03T06:22:36.982Z,99669.44
2022-08-03T06:24:53.779Z,99680.00
2022-08-03T06:26:56.704Z,99682.34
2022-08-03T06:28:58.433Z,99686.28
2022-08-03T06:31:01.461Z,99684.34
2022-08-03T06:33:03.112Z,99680.09
2022-08-03T06:35:08.645Z,99691.19
2022-08-03T06:37:10.309Z,99683.66
2022-08-03T06:39:13.154Z,99688.03
2022-08-03T06:41:14.944Z,99682.75
2022-08-03T06:43:16.587Z,99675.81
2022-08-03T06:45:18.277Z,99689.59
2022-08-03T06:47:19.944Z,99694.03
2022-08-03T06:49:21.715Z,99682.44
2022-08-03T06:52:04.060Z,99684.81
2022-08-03T06:53:45.373Z,99667.78
2022-08-03T06:55:51.145Z,99690.47
2022-08-03T06:58:00.113Z,99684.34
2022-08-03T07:00:11.881Z,99684.63
2022-08-03T07:02:19.093Z,99687.09
2022-08-03T07:04:21.269Z,99689.91
2022-08-03T07:06:22.969Z,99677.72
2022-08-03T07:08:34.263Z,99681.69
2022-08-03T07:10:36.698Z,99683.41
2022-08-03T07:12:55.597Z,99679.94
2022-08-03T07:15:01.832Z,99690.94
2022-08-03T07:17:04.617Z,99671.25
2022-08-03T07:19:13.569Z,99684.13
2022-08-03T07:21:16.803Z,99685.72
2022-08-03T07:23:19.058Z,99683.56
2022-08-03T07:25:21.419Z,99690.91
2022-08-03T07:27:23.219Z,99689.84
2022-08-03T07:29:25.129Z,99694.22
2022-08-03T07:31:27.209Z,99687.38
2022-08-03T07:33:35.806Z,99693.28
2022-08-03T07:35:37.544Z,99681.34
2022-08-03T07:37:39.233Z,99684.09
2022-08-03T07:39:40.888Z,99679.75
2022-08-03T07:41:42.513Z,99681.09
2022-08-03T07:43:44.198Z,99685.16
2022-08-03T07:45:45.878Z,99691.66
2022-08-03T07:47:53.245Z,99679.72
2022-08-03T07:49:56.169Z,99686.69
2022-08-03T07:52:16.616Z,99675.09
2022-08-03T07:54:18.533Z,99674.22
2022-08-03T07:56:20.278Z,99682.91
2022-08-03T07:58:24.316Z,99692.88
2022-08-03T08:00:26.080Z,99687.38
2022-08-03T08:02:27.761Z,99682.69
2022-08-03T08:04:29.393Z,99678.28
2022-08-03T08:06:32.771Z,99681.38
2022-08-03T08:08:34.474Z,99681.63
2022-08-03T08:10:36.669Z,99666.78
2022-08-03T08:12:39.376Z,99670.72
2022-08-03T08:14:41.971Z,99658.66
2022-08-03T08:16:43.638Z,99666.34
2022-08-03T08:18:45.288Z,99657.81
2022-08-03T08:20:46.993Z,99667.63
2022-08-03T08:22:48.866Z,99661.28
2022-08-03T08:24:52.001Z,99672.28
2022-08-03T08:26:54.136Z,99679.56
2022-08-03T08:28:55.769Z,99693.97
2022-08-03T08:30:57.401Z,99679.09
2022-08-03T08:32:59.378Z,99689.44
2022-08-03T08:35:01.067Z,99690.38
2022-08-03T08:37:02.805Z,99694.03
2022-08-03T08:39:04.532Z,99692.84
2022-08-03T08:41:06.278Z,99699.69
2022-08-03T08:43:07.934Z,99688.88
2022-08-03T08:45:11.990Z,99695.28
2022-08-03T08:47:14.665Z,99688.06
2022-08-03T08:49:18.773Z,99690.22
2022-08-03T08:51:22.223Z,99686.47
2022-08-03T08:53:29.229Z,99674.56
2022-08-03T08:55:59.399Z,99663.19
2022-08-03T08:58:02.005Z,99670.50
2022-08-03T09:00:10.556Z,99659.78
2022-08-03T09:02:12.258Z,99666.41
2022-08-03T09:04:14.177Z,99661.50
2022-08-03T09:06:16.553Z,99677.84
2022-08-03T09:08:18.518Z,99694.16
2022-08-03T09:10:22.012Z,99689.47
2022-08-03T09:12:42.273Z,99686.28
2022-08-03T09:14:55.141Z,99690.34
2022-08-03T09:17:05.166Z,99683.16
2022-08-03T09:19:14.270Z,99693.31
2022-08-03T09:21:35.111Z,99693.59
2022-08-03T09:24:05.412Z,99677.88
2022-08-03T09:26:09.135Z,99682.44
2022-08-03T09:28:52.705Z,99681.59
2022-08-03T09:30:57.597Z,99677.88
2022-08-03T09:33:05.063Z,99680.47
2022-08-03T09:35:09.348Z,99673.16
2022-08-03T09:37:16.420Z,99669.63
2022-08-03T09:39:41.180Z,99641.56
2022-08-03T09:41:46.547Z,99650.63
2022-08-03T09:43:48.285Z,99660.63
2022-08-03T09:45:50.290Z,99651.69
2022-08-03T09:47:52.070Z,99662.91
2022-08-03T09:50:02.308Z,99648.44
2022-08-03T09:52:38.765Z,99646.78
2022-08-03T09:54:41.736Z,99645.75
2022-08-03T09:56:47.066Z,99642.31
2022-08-03T09:58:48.873Z,99645.25
2022-08-03T10:01:01.919Z,99646.03
2022-08-03T10:03:05.901Z,99650.34
2022-08-03T10:05:09.557Z,99653.19
2022-08-03T10:07:11.595Z,99656.09
2022-08-03T10:09:15.636Z,99651.72
2022-08-03T10:11:31.093Z,99649.34
2022-08-03T10:13:33.042Z,99638.09
2022-08-03T10:16:23.785Z,99655.75
2022-08-03T10:17:56.460Z,99655.81
2022-08-03T10:20:00.187Z,99652.25
2022-08-03T10:22:07.667Z,99650.22
2022-08-03T10:24:10.890Z,99633.75
2022-08-03T10:26:19.254Z,99626.75
2022-08-03T10:28:22.182Z,99629.94
2022-08-03T10:30:27.878Z,99638.34
2022-08-03T10:32:35.976Z,99629.34
2022-08-03T10:34:44.407Z,99634.00
2022-08-03T10:36:47.679Z,99636.84
2022-08-03T10:38:53.290Z,99624.06
2022-08-03T10:40:59.051Z,99629.59
2022-08-03T10:43:10.136Z,99617.81
2022-08-03T10:45:25.507Z,99624.25
2022-08-03T10:47:27.685Z,99632.22
2022-08-03T10:49:33.727Z,99615.97
2022-08-03T10:51:37.135Z,99612.69
2022-08-03T10:53:47.694Z,99612.47
2022-08-03T10:56:14.405Z,99607.72
2022-08-03T10:58:57.159Z,99604.88
2022-08-03T11:03:23.515Z,99577.94
2022-08-03T11:05:27.556Z,99586.47
2022-08-03T11:07:29.194Z,99599.84
2022-08-03T11:09:42.421Z,99606.94
2022-08-03T11:11:45.979Z,99590.81
2022-08-03T11:14:05.855Z,99585.56
2022-08-03T11:16:22.277Z,99583.00
2022-08-03T11:18:27.063Z,99586.38
2022-08-03T11:20:50.570Z,99566.94
2022-08-03T11:22:54.622Z,99582.72
2022-08-03T11:24:57.385Z,99590.22
2022-08-03T11:27:14.400Z,99585.56
2022-08-03T11:29:28.115Z,99577.00
2022-08-03T11:31:49.415Z,99575.88
2022-08-03T11:34:12.502Z,99577.00
2022-08-03T11:36:32.279Z,99578.69
2022-08-03T11:38:34.238Z,99576.00
2022-08-03T11:40:46.260Z,99577.47
2022-08-03T11:42:48.380Z,99573.47
2022-08-03T11:45:00.533Z,99572.91
2022-08-03T11:47:02.214Z,99571.63
2022-08-03T11:49:10.471Z,99571.22
2022-08-03T11:51:26.934Z,99560.00
2022-08-03T11:53:28.805Z,99557.13
2022-08-03T11:55:32.135Z,99559.78
2022-08-03T11:59:00.775Z,99572.91
2022-08-03T11:59:57.301Z,99561.31
2022-08-03T12:02:14.721Z,99554.44
2022-08-03T12:04:16.532Z,99557.34
2022-08-03T12:06:19.175Z,99547.16
2022-08-03T12:08:26.926Z,99539.69
2022-08-03T12:10:29.295Z,99548.19
2022-08-03T12:12:31.079Z,99552.16
2022-08-03T12:14:50.076Z,99536.94
2022-08-03T12:16:53.683Z,99559.31
2022-08-03T12:19:01.497Z,99538.69
2022-08-03T12:21:08.890Z,99550.22
2022-08-03T12:23:11.593Z,99558.84
2022-08-03T12:25:38.562Z,99552.34
2022-08-03T12:27:41.447Z,99551.13
2022-08-03T12:29:43.132Z,99533.63
2022-08-03T12:31:58.866Z,99549.44
2022-08-03T12:34:06.710Z,99538.38
2022-08-03T12:36:10.279Z,99545.16
2022-08-03T12:38:13.042Z,99533.47
2022-08-03T12:40:20.578Z,99547.63
2022-08-03T12:42:31.354Z,99533.13
2022-08-03T12:44:35.825Z,99536.88
2022-08-03T12:46:42.707Z,99542.31
2022-08-03T12:49:20.013Z,99549.28
2022-08-03T12:51:21.804Z,99548.22
2022-08-03T12:53:30.116Z,99555.53
2022-08-03T12:55:57.786Z,99558.00
2022-08-03T12:57:56.851Z,99546.22
2022-08-03T13:00:21.564Z,99542.63
2022-08-03T13:02:31.020Z,99547.78
2022-08-03T13:04:36.010Z,99533.16
2022-08-03T13:06:37.720Z,99532.19
2022-08-03T13:08:39.435Z,99542.94
2022-08-03T13:10:41.090Z,99542.44
2022-08-03T13:12:50.255Z,99540.13
2022-08-03T13:15:01.091Z,99530.31
2022-08-03T13:17:03.055Z,99539.41
2022-08-03T13:19:04.729Z,99538.25
2022-08-03T13:21:08.370Z,99527.44
2022-08-03T13:23:13.903Z,99530.34
2022-08-03T13:25:24.184Z,99525.03
2022-08-03T13:28:04.655Z,99526.38
2022-08-03T13:29:47.952Z,99521.75
2022-08-03T13:31:50.516Z,99527.94
2022-08-03T13:33:53.006Z,99522.75
2022-08-03T13:35:55.276Z,99521.75
2022-08-03T13:37:57.005Z,99507.56
2022-08-03T13:40:02.778Z,99503.09
2022-08-03T13:42:05.475Z,99495.25
2022-08-03T13:44:28.214Z,99509.09
2022-08-03T13:46:28.858Z,99495.47
2022-08-03T13:48:35.958Z,99506.28
2022-08-03T13:50:42.927Z,99501.31
2022-08-03T13:52:46.397Z,99502.44
2022-08-03T13:54:48.126Z,99502.38
2022-08-03T13:56:52.994Z,99514.41
2022-08-03T13:58:55.391Z,99501.53
2022-08-03T14:00:57.075Z,99500.53
2022-08-03T14:03:06.498Z,99499.78
2022-08-03T14:05:11.345Z,99495.28
2022-08-03T14:07:14.812Z,99490.69
2022-08-03T14:09:16.491Z,99491.59
2022-08-03T14:11:19.007Z,99499.81
2022-08-03T14:13:20.731Z,99510.50
2022-08-03T14:15:22.662Z,99497.75
2022-08-03T14:17:24.318Z,99508.16
2022-08-03T14:19:26.342Z,99495.38
2022-08-03T14:21:28.881Z,99470.09
2022-08-03T14:23:30.635Z,99458.66
2022-08-03T14:25:44.199Z,99470.91
2022-08-03T14:27:53.119Z,99480.78
2022-08-03T14:29:56.677Z,99477.00
2022-08-03T14:32:11.269Z,99467.03
2022-08-03T14:34:14.464Z,99471.81
2022-08-03T14:36:16.982Z,99472.22
2022-08-03T14:38:19.346Z,99468.41
2022-08-03T14:40:21.517Z,99480.84
2022-08-03T14:42:23.763Z,99475.09
2022-08-03T14:44:25.453Z,99489.06
2022-08-03T14:46:27.132Z,99479.97
2022-08-03T14:50:29.597Z,99484.38
2022-08-03T14:50:51.760Z,99487.63
2022-08-03T14:52:53.639Z,99483.44
2022-08-03T14:54:55.367Z,99489.75
2022-08-03T14:56:57.738Z,99482.59
2022-08-03T14:59:00.249Z,99486.97
2022-08-03T15:01:02.073Z,99483.91
2022-08-03T15:03:05.091Z,99480.38
2022-08-03T15:05:07.543Z,99484.88
2022-08-03T15:07:09.278Z,99481.81
2022-08-03T15:09:23.521Z,99463.13
2022-08-03T15:11:25.721Z,99464.72
2022-08-03T15:13:27.838Z,99467.91
2022-08-03T15:15:29.578Z,99469.06
2022-08-03T15:17:31.229Z,99466.69
2022-08-03T15:20:00.724Z,99461.31
2022-08-03T15:21:56.227Z,99464.16
2022-08-03T15:23:57.893Z,99457.72
2022-08-03T15:26:27.969Z,99460.16
2022-08-03T15:28:21.212Z,99455.63
2022-08-03T15:30:22.856Z,99458.97
2022-08-03T15:32:24.489Z,99453.94
2022-08-03T15:34:26.173Z,99450.53
2022-08-03T15:36:27.815Z,99431.50
2022-08-03T15:38:29.529Z,99432.22
2022-08-03T15:40:31.204Z,99417.31
2022-08-03T15:42:33.997Z,99413.06
2022-08-03T15:44:35.621Z,99410.72
2022-08-03T15:46:37.399Z,99411.75
2022-08-03T15:48:40.067Z,99398.75
2022-08-03T15:50:41.770Z,99402.34
2022-08-03T15:52:45.495Z,99388.78
2022-08-03T15:54:47.161Z,99389.69
2022-08-03T15:56:48.819Z,99400.56
2022-08-03T15:59:03.834Z,99389.75
2022-08-03T16:01:16.394Z,99401.44
2022-08-03T16:03:21.685Z,99388.72
2022-08-03T16:05:23.358Z,99397.47
2022-08-03T16:08:02.961Z,99399.91
2022-08-03T16:10:05.496Z,99392.16
2022-08-03T16:12:15.371Z,99400.22
2022-08-03T16:14:32.576Z,99395.94
2022-08-03T16:16:40.510Z,99372.88
2022-08-03T16:18:42.750Z,99361.19
2022-08-03T16:20:45.278Z,99365.56
2022-08-03T16:22:48.580Z,99377.03
2022-08-03T16:24:50.534Z,99387.16
2022-08-03T16:26:52.159Z,99377.44
2022-08-03T16:28:53.871Z,99384.56
2022-08-03T16:30:55.550Z,99375.03
2022-08-03T16:32:57.193Z,99357.22
2022-08-03T16:34:59.158Z,99370.22
2022-08-03T16:37:16.511Z,99365.16
2022-08-03T16:39:22.686Z,99365.94
2022-08-03T16:41:24.385Z,99371.84
2022-08-03T16:43:26.123Z,99383.66
2022-08-03T16:45:27.815Z,99384.97
2022-08-03T16:47:29.491Z,99396.41
2022-08-03T16:49:55.126Z,99404.25
2022-08-03T16:51:53.178Z,99389.38
2022-08-03T16:54:07.916Z,99395.91
2022-08-03T16:56:14.027Z,99392.22
2022-08-03T16:58:17.971Z,99402.28
2022-08-03T17:00:33.939Z,99394.53
2022-08-03T17:02:37.056Z,99405.03
2022-08-03T17:04:40.362Z,99403.28
2022-08-03T17:06:45.012Z,99401.91
2022-08-03T17:08:55.485Z,99394.09
2022-08-03T17:10:57.339Z,99399.97
2022-08-03T17:12:59.176Z,99395.81
2022-08-03T17:15:01.412Z,99397.84
2022-08-03T17:17:08.619Z,99394.97
2022-08-03T17:19:18.336Z,99396.88
2022-08-03T17:21:29.410Z,99382.06
2022-08-03T17:23:52.397Z,99382.06
2022-08-03T17:26:02.110Z,99398.63
2022-08-03T17:28:48.358Z,99395.16
2022-08-03T17:30:48.171Z,99386.13
2022-08-03T17:32:56.676Z,99392.53
2022-08-03T17:34:59.119Z,99393.38
2022-08-03T17:37:04.439Z,99385.28
2022-08-03T17:39:06.793Z,99375.28
2022-08-03T17:41:11.026Z,99378.72
2022-08-03T17:45:52.423Z,99383.78
2022-08-03T17:47:57.523Z,99385.56
2022-08-03T17:49:59.685Z,99384.50
2022-08-03T17:52:28.678Z,99385.44
2022-08-03T17:55:56.822Z,99388.69
2022-08-03T17:58:01.573Z,99390.38
2022-08-03T18:00:27.701Z,99386.34
2022-08-03T18:03:10.059Z,99386.13
2022-08-03T18:05:16.277Z,99385.69
2022-08-03T18:07:22.347Z,99391.38
2022-08-03T18:10:04.987Z,99390.28
2022-08-03T18:11:58.088Z,99388.03
2022-08-03T18:16:37.703Z,99377.88
2022-08-03T18:18:44.843Z,99374.38
2022-08-03T18:20:51.366Z,99380.91
2022-08-03T18:22:54.928Z,99373.34
2022-08-03T18:24:59.093Z,99366.66
2022-08-03T18:27:03.200Z,99381.03
2022-08-03T18:29:05.043Z,99388.63
2022-08-03T18:34:16.483Z,99376.97
2022-08-03T18:36:02.956Z,99378.28
2022-08-03T18:38:04.622Z,99381.00
2022-08-03T18:40:12.877Z,99386.13
2022-08-03T18:42:26.693Z,99387.06
2022-08-03T18:47:18.639Z,99397.88
2022-08-03T18:49:34.599Z,99398.63
2022-08-03T18:51:43.370Z,99404.03
2022-08-03T18:54:06.351Z,99403.25
2022-08-03T18:56:19.064Z,99417.19
2022-08-03T18:58:48.335Z,99400.91
2022-08-03T19:02:00.545Z,99402.16
2022-08-03T19:04:04.124Z,99404.25
2022-08-03T19:06:15.902Z,99419.69
2022-08-03T19:08:48.838Z,99408.53
2022-08-03T19:10:57.888Z,99418.41
2022-08-03T19:13:19.331Z,99423.41
2022-08-03T19:15:41.286Z,99432.97
2022-08-03T19:17:52.763Z,99427.91
2022-08-03T19:19:57.387Z,99423.97
2022-08-03T19:21:59.771Z,99420.03
2022-08-03T19:24:09.500Z,99420.28
2022-08-03T19:26:30.149Z,99428.06
2022-08-03T19:28:34.522Z,99427.38
2022-08-03T19:30:38.775Z,99435.97
2022-08-03T19:32:41.668Z,99435.44
2022-08-03T19:34:51.378Z,99434.69
2022-08-03T19:36:54.690Z,99437.41
2022-08-03T19:38:57.218Z,99443.00
2022-08-03T19:41:03.643Z,99430.75
2022-08-03T19:43:52.960Z,99437.94
2022-08-03T19:46:05.958Z,99432.44
2022-08-03T19:48:13.405Z,99416.28
2022-08-03T19:50:15.966Z,99403.06
2022-08-03T19:52:20.919Z,99412.69
2022-08-03T19:54:32.173Z,99408.31
2022-08-03T19:56:34.791Z,99398.09
2022-08-03T19:58:37.359Z,99387.09
2022-08-03T20:00:41.010Z,99404.13
2022-08-03T20:02:51.160Z,99416.75
2022-08-03T20:04:53.195Z,99422.72
2022-08-03T20:06:58.467Z,99414.31
2022-08-03T20:09:00.577Z,99408.16
2022-08-03T20:11:02.622Z,99406.50
2022-08-03T20:13:08.101Z,99420.19
2022-08-03T20:15:10.697Z,99418.47
2022-08-03T20:17:12.413Z,99423.75
2022-08-03T20:19:22.773Z,99426.00
2022-08-03T20:21:27.343Z,99425.22
2022-08-03T20:23:37.483Z,99419.56
2022-08-03T20:25:48.731Z,99415.31
2022-08-03T20:28:13.857Z,99412.72
2022-08-03T20:30:16.251Z,99419.72
2022-08-03T20:32:24.805Z,99426.84
2022-08-03T20:34:26.622Z,99418.72
2022-08-03T20:36:28.993Z,99421.13
2022-08-03T20:38:32.131Z,99425.47
2022-08-03T20:40:33.857Z,99426.84
2022-08-03T20:42:35.671Z,99419.34
2022-08-03T20:44:37.449Z,99425.84
2022-08-03T20:46:56.376Z,99422.63
2022-08-03T20:49:03.897Z,99425.38
2022-08-03T20:51:50.471Z,99427.56
2022-08-03T20:54:00.308Z,99428.38
2022-08-03T20:56:03.614Z,99432.34
2022-08-03T20:58:05.323Z,99424.00
2022-08-03T21:00:12.123Z,99419.69
2022-08-03T21:02:13.972Z,99420.94
2022-08-03T21:04:21.709Z,99418.31
2022-08-03T21:06:27.766Z,99414.28
2022-08-03T21:08:29.999Z,99413.19
2022-08-03T21:10:33.347Z,99404.44
2022-08-03T21:12:50.255Z,99401.47
2022-08-03T21:12:54.882Z,99380.59
2022-08-03T21:12:57.247Z,99379.13
2022-08-03T21:12:58.149Z,99380.47
2022-08-03T21:12:59.142Z,99389.75
2022-08-03T21:15:06.975Z,99409.03
2022-08-03T21:17:19.333Z,99397.50
2022-08-03T21:19:34.316Z,99400.09
2022-08-03T21:21:38.684Z,99377.25
2022-08-03T21:23:49.063Z,99383.75
2022-08-03T21:25:51.936Z,99360.50
2022-08-03T21:27:54.970Z,99371.66
2022-08-03T21:29:58.525Z,99359.38
2022-08-03T21:32:01.473Z,99371.38
2022-08-03T21:34:05.457Z,99368.59
2022-08-03T21:36:07.469Z,99373.09
2022-08-03T21:38:29.948Z,99380.72
2022-08-03T21:40:32.114Z,99385.75
2022-08-03T21:42:33.946Z,99397.25
2022-08-03T21:44:35.636Z,99398.91
2022-08-03T21:46:39.920Z,99401.13
2022-08-03T21:48:41.922Z,99401.59
2022-08-03T21:50:44.588Z,99401.09
2022-08-03T21:52:48.210Z,99401.72
2022-08-03T21:54:54.164Z,99401.47
2022-08-03T21:57:03.074Z,99402.06
2022-08-03T21:59:07.903Z,99401.09
2022-08-03T22:01:10.925Z,99391.28
2022-08-03T22:03:17.127Z,99402.00
2022-08-03T22:05:20.049Z,99407.03
2022-08-03T22:07:31.483Z,99402.38
2022-08-03T22:09:35.320Z,99403.66
2022-08-03T22:11:38.601Z,99402.22
2022-08-03T22:13:43.590Z,99398.81
2022-08-03T22:15:48.696Z,99392.69
2022-08-03T22:17:55.621Z,99400.31
2022-08-03T22:19:58.782Z,99397.66
2022-08-03T22:22:04.617Z,99388.34
2022-08-03T22:24:07.368Z,99393.31
2022-08-03T22:26:14.169Z,99394.59
2022-08-03T22:28:15.918Z,99393.00
2022-08-03T22:30:19.269Z,99401.44
2022-08-03T22:32:21.050Z,99408.34
2022-08-03T22:34:26.685Z,99398.03
2022-08-03T22:36:30.162Z,99386.84
2022-08-03T22:38:33.094Z,99376.72
2022-08-03T22:40:36.379Z,99382.34
2022-08-03T22:42:40.304Z,99388.91
2022-08-03T22:44:42.001Z,99386.78
2022-08-03T22:46:44.721Z,99384.22
2022-08-03T22:48:47.311Z,99386.03
2022-08-03T22:50:49.360Z,99382.88
2022-08-03T22:52:53.611Z,99376.06
2022-08-03T22:54:56.373Z,99368.91
2022-08-03T22:56:58.409Z,99367.09
2022-08-03T22:59:00.037Z,99379.31
2022-08-03T23:01:09.854Z,99376.66
2022-08-03T23:03:12.167Z,99361.91
2022-08-03T23:06:02.636Z,99366.75
2022-08-03T23:07:45.784Z,99375.38
2022-08-03T23:09:48.574Z,99358.88
2022-08-03T23:11:53.213Z,99369.00
2022-08-03T23:13:59.399Z,99373.06
2022-08-03T23:16:04.537Z,99372.31
2022-08-03T23:18:07.409Z,99377.66
2022-08-03T23:20:09.634Z,99382.72
2022-08-03T23:22:29.475Z,99383.84
2022-08-03T23:24:36.295Z,99388.16
2022-08-03T23:26:38.425Z,99390.84
2022-08-03T23:28:42.262Z,99390.91
2022-08-03T23:30:49.892Z,99376.84
2022-08-03T23:32:54.731Z,99373.75
2022-08-03T23:35:18.482Z,99364.00
2022-08-03T23:37:20.741Z,99356.44
2022-08-03T23:39:22.821Z,99367.03
2022-08-03T23:41:24.727Z,99392.63
2022-08-03T23:43:50.829Z,99380.38
2022-08-03T23:45:49.686Z,99388.66
2022-08-03T23:47:51.364Z,99386.31
2022-08-03T23:49:53.655Z,99380.19
2022-08-03T23:52:21.977Z,99367.78
2022-08-03T23:54:58.461Z,99383.41
2022-08-03T23:57:15.347Z,99363.47
2022-08-03T23:59:48.712Z,99371.47
